sensor_id;sensor_type;location;lat;lon;timestamp;temperature;humidity
20759;DHT22;10539;53.686;9.158;2023-07-31T00:00:35;16.40;99.90
20759;DHT22;10539;53.686;9.158;2023-07-31T00:03:01;16.40;99.90
20759;DHT22;10539;53.686;9.158;2023-07-31T00:05:26;16.40;99.90
20759;DHT22;10539;53.686;9.158;2023-07-31T00:07:52;16.40;99.90
20759;DHT22;10539;53.686;9.158;2023-07-31T00:10:20;16.40;99.90
20759;DHT22;10539;53.686;9.158;2023-07-31T00:12:46;16.40;99.90
20759;DHT22;10539;53.686;9.158;2023-07-31T00:15:13;16.40;99.90
20759;DHT22;10539;53.686;9.158;2023-07-31T00:17:39;16.40;99.90
20759;DHT22;10539;53.686;9.158;2023-07-31T00:20:05;16.40;99.90
20759;DHT22;10539;53.686;9.158;2023-07-31T00:22:31;16.40;99.90
20759;DHT22;10539;53.686;9.158;2023-07-31T00:24:57;16.40;99.90
20759;DHT22;10539;53.686;9.158;2023-07-31T00:27:23;16.50;99.90
20759;DHT22;10539;53.686;9.158;2023-07-31T00:29:49;16.40;99.90
20759;DHT22;10539;53.686;9.158;2023-07-31T00:32:15;16.40;99.90
20759;DHT22;10539;53.686;9.158;2023-07-31T00:34:40;16.40;99.90
20759;DHT22;10539;53.686;9.158;2023-07-31T00:37:06;16.40;99.90
20759;DHT22;10539;53.686;9.158;2023-07-31T00:39:34;16.40;99.90
20759;DHT22;10539;53.686;9.158;2023-07-31T00:42:00;16.40;99.90
20759;DHT22;10539;53.686;9.158;2023-07-31T00:44:26;16.40;99.90
20759;DHT22;10539;53.686;9.158;2023-07-31T00:46:52;16.40;99.90
20759;DHT22;10539;53.686;9.158;2023-07-31T00:49:18;16.40;99.90
20759;DHT22;10539;53.686;9.158;2023-07-31T00:51:44;16.40;99.90
20759;DHT22;10539;53.686;9.158;2023-07-31T00:54:11;16.40;99.90
20759;DHT22;10539;53.686;9.158;2023-07-31T00:56:37;16.40;99.90
20759;DHT22;10539;53.686;9.158;2023-07-31T00:59:03;16.40;99.90
20759;DHT22;10539;53.686;9.158;2023-07-31T01:01:29;16.40;99.90
20759;DHT22;10539;53.686;9.158;2023-07-31T01:03:55;16.40;99.90
20759;DHT22;10539;53.686;9.158;2023-07-31T01:09:22;16.40;99.90
20759;DHT22;10539;53.686;9.158;2023-07-31T01:11:56;16.40;99.90
20759;DHT22;10539;53.686;9.158;2023-07-31T01:14:22;16.40;99.90
20759;DHT22;10539;53.686;9.158;2023-07-31T01:16:48;16.40;99.90
20759;DHT22;10539;53.686;9.158;2023-07-31T01:19:15;16.40;99.90
20759;DHT22;10539;53.686;9.158;2023-07-31T01:24:23;16.40;99.90
20759;DHT22;10539;53.686;9.158;2023-07-31T01:27:21;16.40;99.90
20759;DHT22;10539;53.686;9.158;2023-07-31T01:29:55;16.40;99.90
20759;DHT22;10539;53.686;9.158;2023-07-31T01:32:22;16.40;99.90
20759;DHT22;10539;53.686;9.158;2023-07-31T01:34:49;16.40;99.90
20759;DHT22;10539;53.686;9.158;2023-07-31T01:37:16;16.40;99.90
20759;DHT22;10539;53.686;9.158;2023-07-31T01:39:42;16.40;99.90
20759;DHT22;10539;53.686;9.158;2023-07-31T01:42:07;16.40;99.90
20759;DHT22;10539;53.686;9.158;2023-07-31T01:44:33;16.40;99.90
20759;DHT22;10539;53.686;9.158;2023-07-31T01:46:59;16.40;99.90
20759;DHT22;10539;53.686;9.158;2023-07-31T01:49:25;16.40;99.90
20759;DHT22;10539;53.686;9.158;2023-07-31T01:51:51;16.30;99.90
20759;DHT22;10539;53.686;9.158;2023-07-31T01:54:17;16.30;99.90
20759;DHT22;10539;53.686;9.158;2023-07-31T01:56:43;16.30;99.90
20759;DHT22;10539;53.686;9.158;2023-07-31T01:59:09;16.30;99.90
20759;DHT22;10539;53.686;9.158;2023-07-31T02:01:34;16.30;99.90
20759;DHT22;10539;53.686;9.158;2023-07-31T02:04:00;16.30;99.90
20759;DHT22;10539;53.686;9.158;2023-07-31T02:06:26;16.40;99.90
20759;DHT22;10539;53.686;9.158;2023-07-31T02:08:52;16.40;99.90
20759;DHT22;10539;53.686;9.158;2023-07-31T02:11:18;16.40;99.90
20759;DHT22;10539;53.686;9.158;2023-07-31T02:13:43;16.40;99.90
20759;DHT22;10539;53.686;9.158;2023-07-31T02:16:09;16.40;99.90
20759;DHT22;10539;53.686;9.158;2023-07-31T02:18:35;16.30;99.90
20759;DHT22;10539;53.686;9.158;2023-07-31T02:21:00;16.30;99.90
20759;DHT22;10539;53.686;9.158;2023-07-31T02:23:26;16.40;99.90
20759;DHT22;10539;53.686;9.158;2023-07-31T02:25:52;16.40;99.90
20759;DHT22;10539;53.686;9.158;2023-07-31T02:28:17;16.40;99.90
20759;DHT22;10539;53.686;9.158;2023-07-31T02:30:46;16.40;99.90
20759;DHT22;10539;53.686;9.158;2023-07-31T02:33:12;16.40;99.90
20759;DHT22;10539;53.686;9.158;2023-07-31T02:35:38;16.40;99.90
20759;DHT22;10539;53.686;9.158;2023-07-31T02:38:03;16.40;99.90
20759;DHT22;10539;53.686;9.158;2023-07-31T02:40:29;16.40;99.90
20759;DHT22;10539;53.686;9.158;2023-07-31T02:42:55;16.40;99.90
20759;DHT22;10539;53.686;9.158;2023-07-31T02:45:20;16.40;99.90
20759;DHT22;10539;53.686;9.158;2023-07-31T02:47:46;16.40;99.90
20759;DHT22;10539;53.686;9.158;2023-07-31T02:50:12;16.40;99.90
20759;DHT22;10539;53.686;9.158;2023-07-31T02:52:37;16.40;99.90
20759;DHT22;10539;53.686;9.158;2023-07-31T02:55:03;16.40;99.90
20759;DHT22;10539;53.686;9.158;2023-07-31T02:57:29;16.50;99.90
20759;DHT22;10539;53.686;9.158;2023-07-31T02:59:55;16.50;99.90
20759;DHT22;10539;53.686;9.158;2023-07-31T03:02:20;16.50;99.90
20759;DHT22;10539;53.686;9.158;2023-07-31T03:04:46;16.50;99.90
20759;DHT22;10539;53.686;9.158;2023-07-31T03:07:12;16.50;99.90
20759;DHT22;10539;53.686;9.158;2023-07-31T03:09:38;16.50;99.90
20759;DHT22;10539;53.686;9.158;2023-07-31T03:12:03;16.50;99.90
20759;DHT22;10539;53.686;9.158;2023-07-31T03:14:29;16.50;99.90
20759;DHT22;10539;53.686;9.158;2023-07-31T03:16:54;16.60;99.90
20759;DHT22;10539;53.686;9.158;2023-07-31T03:19:20;16.60;99.90
20759;DHT22;10539;53.686;9.158;2023-07-31T03:21:46;16.60;99.90
20759;DHT22;10539;53.686;9.158;2023-07-31T03:24:11;16.70;99.90
20759;DHT22;10539;53.686;9.158;2023-07-31T03:26:40;16.70;99.90
20759;DHT22;10539;53.686;9.158;2023-07-31T03:29:07;16.70;99.90
20759;DHT22;10539;53.686;9.158;2023-07-31T03:31:33;16.70;99.90
20759;DHT22;10539;53.686;9.158;2023-07-31T03:33:59;16.70;99.90
20759;DHT22;10539;53.686;9.158;2023-07-31T03:36:25;16.70;99.90
20759;DHT22;10539;53.686;9.158;2023-07-31T03:38:52;16.80;99.90
20759;DHT22;10539;53.686;9.158;2023-07-31T03:41:18;16.80;99.90
20759;DHT22;10539;53.686;9.158;2023-07-31T03:43:49;16.80;99.90
20759;DHT22;10539;53.686;9.158;2023-07-31T03:46:16;16.80;99.90
20759;DHT22;10539;53.686;9.158;2023-07-31T03:48:42;16.80;99.90
20759;DHT22;10539;53.686;9.158;2023-07-31T03:51:08;16.80;99.90
20759;DHT22;10539;53.686;9.158;2023-07-31T03:53:33;16.80;99.90
20759;DHT22;10539;53.686;9.158;2023-07-31T03:55:59;16.90;99.90
20759;DHT22;10539;53.686;9.158;2023-07-31T03:58:25;16.90;99.90
20759;DHT22;10539;53.686;9.158;2023-07-31T04:00:50;16.90;99.90
20759;DHT22;10539;53.686;9.158;2023-07-31T04:03:16;16.90;99.90
20759;DHT22;10539;53.686;9.158;2023-07-31T04:05:42;16.90;99.90
20759;DHT22;10539;53.686;9.158;2023-07-31T04:08:08;16.90;99.90
20759;DHT22;10539;53.686;9.158;2023-07-31T04:10:33;16.90;99.90
20759;DHT22;10539;53.686;9.158;2023-07-31T04:13:00;16.90;99.90
20759;DHT22;10539;53.686;9.158;2023-07-31T04:15:26;16.90;99.90
20759;DHT22;10539;53.686;9.158;2023-07-31T04:17:52;16.90;99.90
20759;DHT22;10539;53.686;9.158;2023-07-31T04:20:17;16.90;99.90
20759;DHT22;10539;53.686;9.158;2023-07-31T04:22:43;17.00;99.90
20759;DHT22;10539;53.686;9.158;2023-07-31T04:25:09;17.00;99.90
20759;DHT22;10539;53.686;9.158;2023-07-31T04:27:35;16.90;99.90
20759;DHT22;10539;53.686;9.158;2023-07-31T04:30:00;16.90;99.90
20759;DHT22;10539;53.686;9.158;2023-07-31T04:32:26;16.90;99.90
20759;DHT22;10539;53.686;9.158;2023-07-31T04:34:52;16.90;99.90
20759;DHT22;10539;53.686;9.158;2023-07-31T04:37:18;16.90;99.90
20759;DHT22;10539;53.686;9.158;2023-07-31T04:39:44;16.90;99.90
20759;DHT22;10539;53.686;9.158;2023-07-31T04:42:10;16.90;99.90
20759;DHT22;10539;53.686;9.158;2023-07-31T04:44:35;16.90;99.90
20759;DHT22;10539;53.686;9.158;2023-07-31T04:47:01;16.90;99.90
20759;DHT22;10539;53.686;9.158;2023-07-31T04:49:27;16.80;99.90
20759;DHT22;10539;53.686;9.158;2023-07-31T04:51:53;16.80;99.90
20759;DHT22;10539;53.686;9.158;2023-07-31T04:54:19;16.80;99.90
20759;DHT22;10539;53.686;9.158;2023-07-31T04:56:45;16.80;99.90
20759;DHT22;10539;53.686;9.158;2023-07-31T04:59:10;16.80;99.90
20759;DHT22;10539;53.686;9.158;2023-07-31T05:01:36;16.80;99.90
20759;DHT22;10539;53.686;9.158;2023-07-31T05:04:02;16.80;99.90
20759;DHT22;10539;53.686;9.158;2023-07-31T05:06:27;16.80;99.90
20759;DHT22;10539;53.686;9.158;2023-07-31T05:08:53;16.80;99.90
20759;DHT22;10539;53.686;9.158;2023-07-31T05:11:19;16.80;99.90
20759;DHT22;10539;53.686;9.158;2023-07-31T05:13:45;16.80;99.90
20759;DHT22;10539;53.686;9.158;2023-07-31T05:16:10;16.80;99.90
20759;DHT22;10539;53.686;9.158;2023-07-31T05:18:36;16.80;99.90
20759;DHT22;10539;53.686;9.158;2023-07-31T05:21:02;16.80;99.90
20759;DHT22;10539;53.686;9.158;2023-07-31T05:23:27;16.80;99.90
20759;DHT22;10539;53.686;9.158;2023-07-31T05:25:53;16.80;99.90
20759;DHT22;10539;53.686;9.158;2023-07-31T05:28:21;16.80;99.90
20759;DHT22;10539;53.686;9.158;2023-07-31T05:30:47;16.80;99.90
20759;DHT22;10539;53.686;9.158;2023-07-31T05:33:12;16.80;99.90
20759;DHT22;10539;53.686;9.158;2023-07-31T05:35:38;16.80;99.90
20759;DHT22;10539;53.686;9.158;2023-07-31T05:38:04;16.80;99.90
20759;DHT22;10539;53.686;9.158;2023-07-31T05:40:33;16.90;99.90
20759;DHT22;10539;53.686;9.158;2023-07-31T05:42:58;16.90;99.90
20759;DHT22;10539;53.686;9.158;2023-07-31T05:45:25;16.90;99.90
20759;DHT22;10539;53.686;9.158;2023-07-31T05:47:51;16.90;99.90
20759;DHT22;10539;53.686;9.158;2023-07-31T05:50:17;16.90;99.90
20759;DHT22;10539;53.686;9.158;2023-07-31T05:52:42;16.90;99.90
20759;DHT22;10539;53.686;9.158;2023-07-31T05:55:08;16.90;99.90
20759;DHT22;10539;53.686;9.158;2023-07-31T05:57:34;17.00;99.90
20759;DHT22;10539;53.686;9.158;2023-07-31T06:00:00;17.00;99.90
20759;DHT22;10539;53.686;9.158;2023-07-31T06:02:26;17.00;99.90
20759;DHT22;10539;53.686;9.158;2023-07-31T06:04:53;17.00;99.90
20759;DHT22;10539;53.686;9.158;2023-07-31T06:07:19;17.00;99.90
20759;DHT22;10539;53.686;9.158;2023-07-31T06:09:45;17.00;99.90
20759;DHT22;10539;53.686;9.158;2023-07-31T06:12:10;17.00;99.90
20759;DHT22;10539;53.686;9.158;2023-07-31T06:14:37;17.10;99.90
20759;DHT22;10539;53.686;9.158;2023-07-31T06:17:03;17.10;99.90
20759;DHT22;10539;53.686;9.158;2023-07-31T06:19:29;17.10;99.90
20759;DHT22;10539;53.686;9.158;2023-07-31T06:21:55;17.10;99.90
20759;DHT22;10539;53.686;9.158;2023-07-31T06:24:21;17.20;99.90
20759;DHT22;10539;53.686;9.158;2023-07-31T06:26:47;17.20;99.90
20759;DHT22;10539;53.686;9.158;2023-07-31T06:29:13;17.20;99.90
20759;DHT22;10539;53.686;9.158;2023-07-31T06:31:40;17.20;99.90
20759;DHT22;10539;53.686;9.158;2023-07-31T06:34:06;17.30;99.90
20759;DHT22;10539;53.686;9.158;2023-07-31T06:36:32;17.30;99.90
20759;DHT22;10539;53.686;9.158;2023-07-31T06:38:57;17.30;99.90
20759;DHT22;10539;53.686;9.158;2023-07-31T06:41:23;17.30;99.90
20759;DHT22;10539;53.686;9.158;2023-07-31T06:43:49;17.30;99.90
20759;DHT22;10539;53.686;9.158;2023-07-31T06:46:15;17.30;99.90
20759;DHT22;10539;53.686;9.158;2023-07-31T06:48:40;17.30;99.90
20759;DHT22;10539;53.686;9.158;2023-07-31T06:51:06;17.30;99.90
20759;DHT22;10539;53.686;9.158;2023-07-31T06:53:32;17.30;99.90
20759;DHT22;10539;53.686;9.158;2023-07-31T06:55:58;17.30;99.90
20759;DHT22;10539;53.686;9.158;2023-07-31T06:58:24;17.40;99.90
20759;DHT22;10539;53.686;9.158;2023-07-31T07:00:49;17.40;99.90
20759;DHT22;10539;53.686;9.158;2023-07-31T07:03:18;17.40;99.90
20759;DHT22;10539;53.686;9.158;2023-07-31T07:05:44;17.40;99.90
20759;DHT22;10539;53.686;9.158;2023-07-31T07:08:10;17.50;99.90
20759;DHT22;10539;53.686;9.158;2023-07-31T07:10:35;17.50;99.90
20759;DHT22;10539;53.686;9.158;2023-07-31T07:13:02;17.60;99.90
20759;DHT22;10539;53.686;9.158;2023-07-31T07:15:27;17.60;99.90
20759;DHT22;10539;53.686;9.158;2023-07-31T07:17:54;17.60;99.90
20759;DHT22;10539;53.686;9.158;2023-07-31T07:20:20;17.60;99.90
20759;DHT22;10539;53.686;9.158;2023-07-31T07:22:45;17.60;99.90
20759;DHT22;10539;53.686;9.158;2023-07-31T07:25:11;17.60;99.90
20759;DHT22;10539;53.686;9.158;2023-07-31T07:27:37;17.70;99.90
20759;DHT22;10539;53.686;9.158;2023-07-31T07:30:03;17.70;99.90
20759;DHT22;10539;53.686;9.158;2023-07-31T07:32:29;17.70;99.90
20759;DHT22;10539;53.686;9.158;2023-07-31T07:34:55;17.80;99.90
20759;DHT22;10539;53.686;9.158;2023-07-31T07:37:21;17.80;99.90
20759;DHT22;10539;53.686;9.158;2023-07-31T07:39:47;17.90;99.90
20759;DHT22;10539;53.686;9.158;2023-07-31T07:42:13;17.90;99.90
20759;DHT22;10539;53.686;9.158;2023-07-31T07:44:38;17.90;99.90
20759;DHT22;10539;53.686;9.158;2023-07-31T07:47:04;17.90;99.90
20759;DHT22;10539;53.686;9.158;2023-07-31T07:49:36;18.00;99.90
20759;DHT22;10539;53.686;9.158;2023-07-31T07:52:02;18.10;99.90
20759;DHT22;10539;53.686;9.158;2023-07-31T07:54:29;18.10;99.90
20759;DHT22;10539;53.686;9.158;2023-07-31T07:56:55;18.10;99.90
20759;DHT22;10539;53.686;9.158;2023-07-31T07:59:21;18.10;99.90
20759;DHT22;10539;53.686;9.158;2023-07-31T08:01:47;18.10;99.90
20759;DHT22;10539;53.686;9.158;2023-07-31T08:04:12;18.00;99.90
20759;DHT22;10539;53.686;9.158;2023-07-31T08:06:38;18.00;99.90
20759;DHT22;10539;53.686;9.158;2023-07-31T08:09:04;18.00;99.90
20759;DHT22;10539;53.686;9.158;2023-07-31T08:11:34;18.10;99.90
20759;DHT22;10539;53.686;9.158;2023-07-31T08:14:00;18.10;99.90
20759;DHT22;10539;53.686;9.158;2023-07-31T08:16:27;18.10;99.90
20759;DHT22;10539;53.686;9.158;2023-07-31T08:18:52;18.10;99.90
20759;DHT22;10539;53.686;9.158;2023-07-31T08:21:18;18.10;99.90
20759;DHT22;10539;53.686;9.158;2023-07-31T08:23:44;18.20;99.90
20759;DHT22;10539;53.686;9.158;2023-07-31T08:26:19;18.30;99.90
20759;DHT22;10539;53.686;9.158;2023-07-31T08:28:45;18.40;99.90
20759;DHT22;10539;53.686;9.158;2023-07-31T08:31:10;18.40;99.90
20759;DHT22;10539;53.686;9.158;2023-07-31T08:33:37;18.40;99.90
20759;DHT22;10539;53.686;9.158;2023-07-31T08:36:03;18.40;99.90
20759;DHT22;10539;53.686;9.158;2023-07-31T08:38:29;18.40;99.90
20759;DHT22;10539;53.686;9.158;2023-07-31T08:40:57;18.50;99.90
20759;DHT22;10539;53.686;9.158;2023-07-31T08:43:26;18.50;99.90
20759;DHT22;10539;53.686;9.158;2023-07-31T08:45:52;18.50;99.90
20759;DHT22;10539;53.686;9.158;2023-07-31T08:48:20;18.50;99.90
20759;DHT22;10539;53.686;9.158;2023-07-31T08:50:46;18.60;99.90
20759;DHT22;10539;53.686;9.158;2023-07-31T08:53:12;18.60;99.90
20759;DHT22;10539;53.686;9.158;2023-07-31T08:55:38;18.60;99.90
20759;DHT22;10539;53.686;9.158;2023-07-31T08:58:04;18.60;99.90
20759;DHT22;10539;53.686;9.158;2023-07-31T09:00:33;18.60;99.90
20759;DHT22;10539;53.686;9.158;2023-07-31T09:03:03;18.60;99.90
20759;DHT22;10539;53.686;9.158;2023-07-31T09:05:33;18.70;99.90
20759;DHT22;10539;53.686;9.158;2023-07-31T09:08:00;18.70;99.90
20759;DHT22;10539;53.686;9.158;2023-07-31T09:10:28;18.80;99.90
20759;DHT22;10539;53.686;9.158;2023-07-31T09:12:54;18.80;99.90
20759;DHT22;10539;53.686;9.158;2023-07-31T09:15:21;18.80;99.90
20759;DHT22;10539;53.686;9.158;2023-07-31T09:18:01;18.80;99.90
20759;DHT22;10539;53.686;9.158;2023-07-31T09:20:28;18.80;99.90
20759;DHT22;10539;53.686;9.158;2023-07-31T09:22:55;18.90;99.90
20759;DHT22;10539;53.686;9.158;2023-07-31T09:25:21;18.90;99.90
20759;DHT22;10539;53.686;9.158;2023-07-31T09:27:57;19.00;99.90
20759;DHT22;10539;53.686;9.158;2023-07-31T09:30:23;19.00;99.90
20759;DHT22;10539;53.686;9.158;2023-07-31T09:32:52;19.00;99.90
20759;DHT22;10539;53.686;9.158;2023-07-31T09:35:30;18.90;99.90
20759;DHT22;10539;53.686;9.158;2023-07-31T09:37:58;18.90;99.90
20759;DHT22;10539;53.686;9.158;2023-07-31T09:40:32;18.90;99.90
20759;DHT22;10539;53.686;9.158;2023-07-31T09:43:00;18.80;99.90
20759;DHT22;10539;53.686;9.158;2023-07-31T09:45:26;18.80;99.90
20759;DHT22;10539;53.686;9.158;2023-07-31T09:47:54;18.80;99.90
20759;DHT22;10539;53.686;9.158;2023-07-31T09:50:21;18.80;99.90
20759;DHT22;10539;53.686;9.158;2023-07-31T09:52:48;18.80;99.90
20759;DHT22;10539;53.686;9.158;2023-07-31T09:55:13;18.70;99.90
20759;DHT22;10539;53.686;9.158;2023-07-31T09:57:41;18.60;99.90
20759;DHT22;10539;53.686;9.158;2023-07-31T10:00:09;18.60;99.90
20759;DHT22;10539;53.686;9.158;2023-07-31T10:02:36;18.60;99.90
20759;DHT22;10539;53.686;9.158;2023-07-31T10:05:03;18.60;99.90
20759;DHT22;10539;53.686;9.158;2023-07-31T10:07:30;18.50;99.90
20759;DHT22;10539;53.686;9.158;2023-07-31T10:09:59;18.50;99.90
20759;DHT22;10539;53.686;9.158;2023-07-31T10:12:27;18.50;99.90
20759;DHT22;10539;53.686;9.158;2023-07-31T10:14:56;18.40;99.90
20759;DHT22;10539;53.686;9.158;2023-07-31T10:17:23;18.40;99.90
20759;DHT22;10539;53.686;9.158;2023-07-31T10:19:49;18.40;99.90
20759;DHT22;10539;53.686;9.158;2023-07-31T10:22:16;18.50;99.90
20759;DHT22;10539;53.686;9.158;2023-07-31T10:24:43;18.50;99.90
20759;DHT22;10539;53.686;9.158;2023-07-31T10:27:09;18.50;99.90
20759;DHT22;10539;53.686;9.158;2023-07-31T10:29:37;18.50;99.90
20759;DHT22;10539;53.686;9.158;2023-07-31T10:32:05;18.50;99.90
20759;DHT22;10539;53.686;9.158;2023-07-31T10:34:34;18.50;99.90
20759;DHT22;10539;53.686;9.158;2023-07-31T10:37:20;18.50;99.90
20759;DHT22;10539;53.686;9.158;2023-07-31T10:42:27;18.50;99.90
20759;DHT22;10539;53.686;9.158;2023-07-31T10:44:58;18.50;99.90
20759;DHT22;10539;53.686;9.158;2023-07-31T10:47:25;18.60;99.90
20759;DHT22;10539;53.686;9.158;2023-07-31T10:49:50;18.60;99.90
20759;DHT22;10539;53.686;9.158;2023-07-31T10:52:20;18.60;99.90
20759;DHT22;10539;53.686;9.158;2023-07-31T10:54:50;18.60;99.90
20759;DHT22;10539;53.686;9.158;2023-07-31T10:57:20;18.60;99.90
20759;DHT22;10539;53.686;9.158;2023-07-31T10:59:46;18.70;99.90
20759;DHT22;10539;53.686;9.158;2023-07-31T11:02:24;18.70;99.90
20759;DHT22;10539;53.686;9.158;2023-07-31T11:05:06;18.70;99.90
20759;DHT22;10539;53.686;9.158;2023-07-31T11:07:49;18.80;99.90
20759;DHT22;10539;53.686;9.158;2023-07-31T11:10:19;18.80;99.90
20759;DHT22;10539;53.686;9.158;2023-07-31T11:12:47;18.70;99.90
20759;DHT22;10539;53.686;9.158;2023-07-31T11:15:14;18.70;99.90
20759;DHT22;10539;53.686;9.158;2023-07-31T11:17:40;18.70;99.90
20759;DHT22;10539;53.686;9.158;2023-07-31T11:20:07;18.80;99.90
20759;DHT22;10539;53.686;9.158;2023-07-31T11:22:35;18.70;99.90
20759;DHT22;10539;53.686;9.158;2023-07-31T11:25:02;18.60;99.90
20759;DHT22;10539;53.686;9.158;2023-07-31T11:27:29;18.40;99.90
20759;DHT22;10539;53.686;9.158;2023-07-31T11:30:02;18.40;99.90
20759;DHT22;10539;53.686;9.158;2023-07-31T11:32:28;18.30;99.90
20759;DHT22;10539;53.686;9.158;2023-07-31T11:34:54;18.30;99.90
20759;DHT22;10539;53.686;9.158;2023-07-31T11:37:20;18.30;99.90
20759;DHT22;10539;53.686;9.158;2023-07-31T11:39:59;18.30;99.90
20759;DHT22;10539;53.686;9.158;2023-07-31T11:42:25;18.30;99.90
20759;DHT22;10539;53.686;9.158;2023-07-31T11:44:51;18.30;99.90
20759;DHT22;10539;53.686;9.158;2023-07-31T11:47:16;18.30;99.90
20759;DHT22;10539;53.686;9.158;2023-07-31T11:49:43;18.30;99.90
20759;DHT22;10539;53.686;9.158;2023-07-31T11:52:10;18.40;99.90
20759;DHT22;10539;53.686;9.158;2023-07-31T11:54:37;18.30;99.90
20759;DHT22;10539;53.686;9.158;2023-07-31T11:57:03;18.30;99.90
20759;DHT22;10539;53.686;9.158;2023-07-31T11:59:29;18.40;99.90
20759;DHT22;10539;53.686;9.158;2023-07-31T12:01:55;18.40;99.90
20759;DHT22;10539;53.686;9.158;2023-07-31T12:04:21;18.30;99.90
20759;DHT22;10539;53.686;9.158;2023-07-31T12:06:47;18.10;99.90
20759;DHT22;10539;53.686;9.158;2023-07-31T12:09:16;18.00;99.90
20759;DHT22;10539;53.686;9.158;2023-07-31T12:11:48;17.90;99.90
20759;DHT22;10539;53.686;9.158;2023-07-31T12:14:25;17.80;99.90
20759;DHT22;10539;53.686;9.158;2023-07-31T12:17:00;17.80;99.90
20759;DHT22;10539;53.686;9.158;2023-07-31T12:19:26;17.80;99.90
20759;DHT22;10539;53.686;9.158;2023-07-31T12:21:56;17.80;99.90
20759;DHT22;10539;53.686;9.158;2023-07-31T12:24:21;17.70;99.90
20759;DHT22;10539;53.686;9.158;2023-07-31T12:26:48;17.70;99.90
20759;DHT22;10539;53.686;9.158;2023-07-31T12:29:14;17.50;99.90
20759;DHT22;10539;53.686;9.158;2023-07-31T12:31:43;17.40;99.90
20759;DHT22;10539;53.686;9.158;2023-07-31T12:34:19;17.40;99.90
20759;DHT22;10539;53.686;9.158;2023-07-31T12:36:46;17.40;99.90
20759;DHT22;10539;53.686;9.158;2023-07-31T12:39:14;17.50;99.90
20759;DHT22;10539;53.686;9.158;2023-07-31T12:41:40;17.50;99.90
20759;DHT22;10539;53.686;9.158;2023-07-31T12:44:06;17.40;99.90
20759;DHT22;10539;53.686;9.158;2023-07-31T12:46:32;17.30;99.90
20759;DHT22;10539;53.686;9.158;2023-07-31T12:48:57;17.30;99.90
20759;DHT22;10539;53.686;9.158;2023-07-31T12:51:23;17.40;99.90
20759;DHT22;10539;53.686;9.158;2023-07-31T12:53:49;17.30;99.90
20759;DHT22;10539;53.686;9.158;2023-07-31T12:56:14;17.20;99.90
20759;DHT22;10539;53.686;9.158;2023-07-31T12:58:40;17.20;99.90
20759;DHT22;10539;53.686;9.158;2023-07-31T13:01:06;17.30;99.90
20759;DHT22;10539;53.686;9.158;2023-07-31T13:03:32;17.30;99.90
20759;DHT22;10539;53.686;9.158;2023-07-31T13:05:57;17.30;99.90
20759;DHT22;10539;53.686;9.158;2023-07-31T13:08:23;17.30;99.90
20759;DHT22;10539;53.686;9.158;2023-07-31T13:10:49;17.30;99.90
20759;DHT22;10539;53.686;9.158;2023-07-31T13:13:15;17.40;99.90
20759;DHT22;10539;53.686;9.158;2023-07-31T13:15:41;17.30;99.90
20759;DHT22;10539;53.686;9.158;2023-07-31T13:18:07;17.30;99.90
20759;DHT22;10539;53.686;9.158;2023-07-31T13:20:33;17.40;99.90
20759;DHT22;10539;53.686;9.158;2023-07-31T13:22:59;17.50;99.90
20759;DHT22;10539;53.686;9.158;2023-07-31T13:25:24;17.40;99.90
20759;DHT22;10539;53.686;9.158;2023-07-31T13:27:50;17.40;99.90
20759;DHT22;10539;53.686;9.158;2023-07-31T13:30:16;17.50;99.90
20759;DHT22;10539;53.686;9.158;2023-07-31T13:32:42;17.50;99.90
20759;DHT22;10539;53.686;9.158;2023-07-31T13:35:08;17.40;99.90
20759;DHT22;10539;53.686;9.158;2023-07-31T13:37:34;17.30;99.90
20759;DHT22;10539;53.686;9.158;2023-07-31T13:40:00;17.20;99.90
20759;DHT22;10539;53.686;9.158;2023-07-31T13:42:26;17.10;99.90
20759;DHT22;10539;53.686;9.158;2023-07-31T13:44:54;17.00;99.90
20759;DHT22;10539;53.686;9.158;2023-07-31T13:47:21;17.10;99.90
20759;DHT22;10539;53.686;9.158;2023-07-31T13:49:47;17.10;99.90
20759;DHT22;10539;53.686;9.158;2023-07-31T13:52:12;17.10;99.90
20759;DHT22;10539;53.686;9.158;2023-07-31T13:54:38;17.20;99.90
20759;DHT22;10539;53.686;9.158;2023-07-31T13:57:05;17.40;99.90
20759;DHT22;10539;53.686;9.158;2023-07-31T13:59:31;17.40;99.90
20759;DHT22;10539;53.686;9.158;2023-07-31T14:01:56;17.30;99.90
20759;DHT22;10539;53.686;9.158;2023-07-31T14:04:22;17.40;99.90
20759;DHT22;10539;53.686;9.158;2023-07-31T14:06:48;17.40;99.90
20759;DHT22;10539;53.686;9.158;2023-07-31T14:09:16;17.50;99.90
20759;DHT22;10539;53.686;9.158;2023-07-31T14:11:42;17.50;99.90
20759;DHT22;10539;53.686;9.158;2023-07-31T14:14:09;17.40;99.90
20759;DHT22;10539;53.686;9.158;2023-07-31T14:16:35;17.40;99.90
20759;DHT22;10539;53.686;9.158;2023-07-31T14:19:01;17.40;99.90
20759;DHT22;10539;53.686;9.158;2023-07-31T14:21:26;17.30;99.90
20759;DHT22;10539;53.686;9.158;2023-07-31T14:23:52;17.20;99.90
20759;DHT22;10539;53.686;9.158;2023-07-31T14:26:18;17.20;99.90
20759;DHT22;10539;53.686;9.158;2023-07-31T14:28:44;17.20;99.90
20759;DHT22;10539;53.686;9.158;2023-07-31T14:31:10;17.30;99.90
20759;DHT22;10539;53.686;9.158;2023-07-31T14:33:36;17.30;99.90
20759;DHT22;10539;53.686;9.158;2023-07-31T14:36:02;17.30;99.90
20759;DHT22;10539;53.686;9.158;2023-07-31T14:38:28;17.30;99.90
20759;DHT22;10539;53.686;9.158;2023-07-31T14:40:54;17.40;99.90
20759;DHT22;10539;53.686;9.158;2023-07-31T14:43:20;17.40;99.90
20759;DHT22;10539;53.686;9.158;2023-07-31T14:45:45;17.50;99.90
20759;DHT22;10539;53.686;9.158;2023-07-31T14:48:12;17.50;99.90
20759;DHT22;10539;53.686;9.158;2023-07-31T14:50:38;17.60;99.90
20759;DHT22;10539;53.686;9.158;2023-07-31T14:53:04;17.60;99.90
20759;DHT22;10539;53.686;9.158;2023-07-31T14:55:30;17.70;99.90
20759;DHT22;10539;53.686;9.158;2023-07-31T14:57:55;17.70;99.90
20759;DHT22;10539;53.686;9.158;2023-07-31T15:00:21;17.80;99.90
20759;DHT22;10539;53.686;9.158;2023-07-31T15:02:47;17.80;99.90
20759;DHT22;10539;53.686;9.158;2023-07-31T15:05:13;17.90;99.90
20759;DHT22;10539;53.686;9.158;2023-07-31T15:07:39;18.00;99.90
20759;DHT22;10539;53.686;9.158;2023-07-31T15:10:05;18.00;99.90
20759;DHT22;10539;53.686;9.158;2023-07-31T15:12:31;18.20;99.90
20759;DHT22;10539;53.686;9.158;2023-07-31T15:14:57;18.20;99.90
20759;DHT22;10539;53.686;9.158;2023-07-31T15:17:23;18.20;99.90
20759;DHT22;10539;53.686;9.158;2023-07-31T15:19:49;18.20;99.90
20759;DHT22;10539;53.686;9.158;2023-07-31T15:22:15;18.20;99.90
20759;DHT22;10539;53.686;9.158;2023-07-31T15:24:41;18.30;99.90
20759;DHT22;10539;53.686;9.158;2023-07-31T15:27:07;18.30;99.90
20759;DHT22;10539;53.686;9.158;2023-07-31T15:29:34;18.40;99.90
20759;DHT22;10539;53.686;9.158;2023-07-31T15:32:05;18.50;99.90
20759;DHT22;10539;53.686;9.158;2023-07-31T15:34:31;18.50;99.90